sensor_id;sensor_type;location;lat;lon;timestamp;pressure;altitude;pressure_sealevel;temperature;humidity
5126;BME280;63008;53.112;8.896;2023-04-25T00:01:56;100603.25;;;7.74;96.92
5126;BME280;63008;53.112;8.896;2023-04-25T00:03:57;100605.50;;;7.72;96.67
5126;BME280;63008;53.112;8.896;2023-04-25T00:05:58;100598.72;;;7.70;96.91
5126;BME280;63008;53.112;8.896;2023-04-25T00:08:03;100600.53;;;7.74;96.89
5126;BME280;63008;53.112;8.896;2023-04-25T00:10:05;100598.91;;;7.73;96.93
5126;BME280;63008;53.112;8.896;2023-04-25T00:12:07;100605.50;;;7.72;96.83
5126;BME280;63008;53.112;8.896;2023-04-25T00:14:07;100606.47;;;7.76;96.48
5126;BME280;63008;53.112;8.896;2023-04-25T00:16:08;100616.59;;;7.76;96.65
5126;BME280;63008;53.112;8.896;2023-04-25T00:18:09;100616.25;;;7.69;97.18
5126;BME280;63008;53.112;8.896;2023-04-25T00:20:12;100614.00;;;7.71;97.08
5126;BME280;63008;53.112;8.896;2023-04-25T00:22:13;100622.69;;;7.73;96.61
5126;BME280;63008;53.112;8.896;2023-04-25T00:24:14;100616.25;;;7.69;96.49
5126;BME280;63008;53.112;8.896;2023-04-25T00:26:15;100616.72;;;7.71;95.32
5126;BME280;63008;53.112;8.896;2023-04-25T00:28:16;100613.22;;;7.70;94.87
5126;BME280;63008;53.112;8.896;2023-04-25T00:30:17;100614.16;;;7.66;95.22
5126;BME280;63008;53.112;8.896;2023-04-25T00:32:18;100619.13;;;7.64;94.75
5126;BME280;63008;53.112;8.896;2023-04-25T00:34:19;100615.91;;;7.62;93.69
5126;BME280;63008;53.112;8.896;2023-04-25T00:36:21;100620.06;;;7.59;93.47
5126;BME280;63008;53.112;8.896;2023-04-25T00:38:22;100623.63;;;7.60;92.62
5126;BME280;63008;53.112;8.896;2023-04-25T00:40:23;100623.63;;;7.60;91.28
5126;BME280;63008;53.112;8.896;2023-04-25T00:42:25;100629.88;;;7.60;92.37
5126;BME280;63008;53.112;8.896;2023-04-25T00:44:27;100628.09;;;7.56;91.83
5126;BME280;63008;53.112;8.896;2023-04-25T00:46:28;100628.09;;;7.56;89.81
5126;BME280;63008;53.112;8.896;2023-04-25T00:48:29;100630.34;;;7.54;90.41
5126;BME280;63008;53.112;8.896;2023-04-25T00:50:30;100631.13;;;7.46;90.51
5126;BME280;63008;53.112;8.896;2023-04-25T00:52:31;100635.63;;;7.42;90.22
5126;BME280;63008;53.112;8.896;2023-04-25T00:54:32;100634.31;;;7.39;91.03
5126;BME280;63008;53.112;8.896;2023-04-25T00:56:33;100638.66;;;7.40;89.56
5126;BME280;63008;53.112;8.896;2023-04-25T00:58:34;100639.63;;;7.44;89.97
5126;BME280;63008;53.112;8.896;2023-04-25T01:00:36;100640.06;;;7.38;89.92
5126;BME280;63008;53.112;8.896;2023-04-25T01:02:37;100640.72;;;7.35;89.48
5126;BME280;63008;53.112;8.896;2023-04-25T01:04:38;100645.03;;;7.36;90.25
5126;BME280;63008;53.112;8.896;2023-04-25T01:06:40;100649.53;;;7.32;90.29
5126;BME280;63008;53.112;8.896;2023-04-25T01:08:41;100649.03;;;7.30;89.20
5126;BME280;63008;53.112;8.896;2023-04-25T01:10:42;100650.16;;;7.29;89.76
5126;BME280;63008;53.112;8.896;2023-04-25T01:12:42;100653.56;;;7.34;89.68
5126;BME280;63008;53.112;8.896;2023-04-25T01:14:44;100648.91;;;7.35;89.05
5126;BME280;63008;53.112;8.896;2023-04-25T01:16:45;100649.53;;;7.32;88.96
5126;BME280;63008;53.112;8.896;2023-04-25T01:18:46;100642.94;;;7.33;89.29
5126;BME280;63008;53.112;8.896;2023-04-25T01:20:51;100653.56;;;7.34;88.25
5126;BME280;63008;53.112;8.896;2023-04-25T01:22:52;100653.38;;;7.31;88.69
5126;BME280;63008;53.112;8.896;2023-04-25T01:24:53;100664.25;;;7.22;89.06
5126;BME280;63008;53.112;8.896;2023-04-25T01:26:54;100662.19;;;7.28;90.25
5126;BME280;63008;53.112;8.896;2023-04-25T01:28:57;100666.34;;;7.25;90.33
5126;BME280;63008;53.112;8.896;2023-04-25T01:30:59;100659.91;;;7.21;90.35
5126;BME280;63008;53.112;8.896;2023-04-25T01:33:03;100658.50;;;7.24;87.52
5126;BME280;63008;53.112;8.896;2023-04-25T01:35:10;100665.56;;;7.25;86.94
5126;BME280;63008;53.112;8.896;2023-04-25T01:37:11;100657.16;;;7.13;87.80
5126;BME280;63008;53.112;8.896;2023-04-25T01:39:12;100660.63;;;7.05;87.18
5126;BME280;63008;53.112;8.896;2023-04-25T01:41:14;100658.34;;;6.99;88.57
5126;BME280;63008;53.112;8.896;2023-04-25T01:43:15;100669.22;;;6.90;88.31
5126;BME280;63008;53.112;8.896;2023-04-25T01:45:17;100669.38;;;6.94;87.65
5126;BME280;63008;53.112;8.896;2023-04-25T01:47:18;100674.41;;;7.00;85.90
5126;BME280;63008;53.112;8.896;2023-04-25T01:49:19;100679.63;;;6.88;86.28
5126;BME280;63008;53.112;8.896;2023-04-25T01:51:20;100680.41;;;6.89;84.89
5126;BME280;63008;53.112;8.896;2023-04-25T01:53:21;100688.13;;;6.87;85.68
5126;BME280;63008;53.112;8.896;2023-04-25T01:55:23;100687.28;;;6.86;84.96
5126;BME280;63008;53.112;8.896;2023-04-25T01:57:24;100694.19;;;6.84;84.96
5126;BME280;63008;53.112;8.896;2023-04-25T01:59:25;100690.84;;;6.87;84.24
5126;BME280;63008;53.112;8.896;2023-04-25T02:01:26;100699.84;;;6.87;83.74
5126;BME280;63008;53.112;8.896;2023-04-25T02:03:29;100695.84;;;6.93;82.63
5126;BME280;63008;53.112;8.896;2023-04-25T02:05:34;100691.97;;;6.86;83.11
5126;BME280;63008;53.112;8.896;2023-04-25T02:07:36;100704.19;;;6.88;83.13
5126;BME280;63008;53.112;8.896;2023-04-25T02:09:37;100701.63;;;6.92;83.17
5126;BME280;63008;53.112;8.896;2023-04-25T02:11:38;100697.41;;;6.86;83.84
5126;BME280;63008;53.112;8.896;2023-04-25T02:13:39;100706.84;;;6.80;82.97
5126;BME280;63008;53.112;8.896;2023-04-25T02:15:40;100704.78;;;6.85;81.64
5126;BME280;63008;53.112;8.896;2023-04-25T02:17:41;100703.06;;;6.89;81.18
5126;BME280;63008;53.112;8.896;2023-04-25T02:19:42;100706.56;;;6.90;79.03
5126;BME280;63008;53.112;8.896;2023-04-25T02:21:43;100702.56;;;6.87;80.59
5126;BME280;63008;53.112;8.896;2023-04-25T02:23:44;100701.88;;;6.82;80.54
5126;BME280;63008;53.112;8.896;2023-04-25T02:25:49;100702.38;;;6.84;81.00
5126;BME280;63008;53.112;8.896;2023-04-25T02:27:50;100708.75;;;6.79;79.66
5126;BME280;63008;53.112;8.896;2023-04-25T02:29:52;100708.75;;;6.79;79.97
5126;BME280;63008;53.112;8.896;2023-04-25T02:31:53;100709.00;;;6.69;79.58
5126;BME280;63008;53.112;8.896;2023-04-25T02:33:53;100710.63;;;6.70;79.64
5126;BME280;63008;53.112;8.896;2023-04-25T02:35:54;100719.72;;;6.66;79.22
5126;BME280;63008;53.112;8.896;2023-04-25T02:37:55;100711.72;;;6.69;79.47
5126;BME280;63008;53.112;8.896;2023-04-25T02:39:56;100717.19;;;6.69;78.76
5126;BME280;63008;53.112;8.896;2023-04-25T02:41:57;100717.69;;;6.71;79.50
5126;BME280;63008;53.112;8.896;2023-04-25T02:43:58;100708.31;;;6.64;80.07
5126;BME280;63008;53.112;8.896;2023-04-25T02:45:59;100706.38;;;6.64;80.37
5126;BME280;63008;53.112;8.896;2023-04-25T02:48:02;100702.88;;;6.64;80.05
5126;BME280;63008;53.112;8.896;2023-04-25T02:50:03;100704.84;;;6.72;79.59
5126;BME280;63008;53.112;8.896;2023-04-25T02:52:04;100704.63;;;6.68;80.33
5126;BME280;63008;53.112;8.896;2023-04-25T02:54:05;100699.19;;;6.68;80.20
5126;BME280;63008;53.112;8.896;2023-04-25T02:56:07;100703.16;;;6.62;80.08
5126;BME280;63008;53.112;8.896;2023-04-25T02:58:08;100696.91;;;6.62;80.60
5126;BME280;63008;53.112;8.896;2023-04-25T03:00:09;100699.56;;;6.53;81.19
5126;BME280;63008;53.112;8.896;2023-04-25T03:02:12;100697.06;;;6.43;81.91
5126;BME280;63008;53.112;8.896;2023-04-25T03:04:13;100692.25;;;6.40;82.11
5126;BME280;63008;53.112;8.896;2023-04-25T03:06:14;100686.78;;;6.40;82.24
5126;BME280;63008;53.112;8.896;2023-04-25T03:08:17;100690.63;;;6.39;82.35
5126;BME280;63008;53.112;8.896;2023-04-25T03:10:18;100689.31;;;6.37;82.56
5126;BME280;63008;53.112;8.896;2023-04-25T03:12:19;100702.31;;;6.40;82.44
5126;BME280;63008;53.112;8.896;2023-04-25T03:14:20;100694.75;;;6.37;83.34
5126;BME280;63008;53.112;8.896;2023-04-25T03:16:21;100697.81;;;6.35;83.51
5126;BME280;63008;53.112;8.896;2023-04-25T03:18:22;100691.97;;;6.28;84.67
5126;BME280;63008;53.112;8.896;2023-04-25T03:20:23;100696.63;;;6.28;85.09
5126;BME280;63008;53.112;8.896;2023-04-25T03:22:24;100705.09;;;6.26;85.13
5126;BME280;63008;53.112;8.896;2023-04-25T03:24:25;100707.13;;;6.21;85.37
5126;BME280;63008;53.112;8.896;2023-04-25T03:26:27;100716.00;;;6.26;85.03
5126;BME280;63008;53.112;8.896;2023-04-25T03:28:28;100717.94;;;6.26;84.57
5126;BME280;63008;53.112;8.896;2023-04-25T03:30:29;100712.47;;;6.26;84.94
5126;BME280;63008;53.112;8.896;2023-04-25T03:32:30;100719.75;;;6.17;83.84
5126;BME280;63008;53.112;8.896;2023-04-25T03:34:31;100722.75;;;6.15;84.20
5126;BME280;63008;53.112;8.896;2023-04-25T03:36:32;100718.00;;;6.21;84.79
5126;BME280;63008;53.112;8.896;2023-04-25T03:38:33;100718.84;;;6.21;84.63
5126;BME280;63008;53.112;8.896;2023-04-25T03:40:34;100716.41;;;6.20;83.87
5126;BME280;63008;53.112;8.896;2023-04-25T03:42:35;100718.72;;;6.26;83.26
5126;BME280;63008;53.112;8.896;2023-04-25T03:44:36;100719.81;;;6.25;82.94
5126;BME280;63008;53.112;8.896;2023-04-25T03:46:37;100711.94;;;6.24;82.18
5126;BME280;63008;53.112;8.896;2023-04-25T03:48:38;100724.06;;;6.18;82.60
5126;BME280;63008;53.112;8.896;2023-04-25T03:50:39;100726.41;;;6.11;82.33
5126;BME280;63008;53.112;8.896;2023-04-25T03:52:40;100731.53;;;6.12;81.63
5126;BME280;63008;53.112;8.896;2023-04-25T03:54:41;100727.28;;;6.20;80.71
5126;BME280;63008;53.112;8.896;2023-04-25T03:56:42;100736.28;;;6.20;80.30
5126;BME280;63008;53.112;8.896;2023-04-25T03:58:43;100732.88;;;6.15;80.91
5126;BME280;63008;53.112;8.896;2023-04-25T04:00:44;100734.28;;;6.12;79.99
5126;BME280;63008;53.112;8.896;2023-04-25T04:02:45;100736.38;;;6.15;79.61
5126;BME280;63008;53.112;8.896;2023-04-25T04:04:46;100742.16;;;6.14;80.03
5126;BME280;63008;53.112;8.896;2023-04-25T04:06:47;100745.50;;;6.11;79.71
5126;BME280;63008;53.112;8.896;2023-04-25T04:08:48;100750.53;;;6.17;79.04
5126;BME280;63008;53.112;8.896;2023-04-25T04:10:49;100747.47;;;6.19;77.35
5126;BME280;63008;53.112;8.896;2023-04-25T04:12:50;100755.25;;;6.12;77.05
5126;BME280;63008;53.112;8.896;2023-04-25T04:14:51;100747.88;;;6.12;77.55
5126;BME280;63008;53.112;8.896;2023-04-25T04:16:52;100754.44;;;6.11;76.40
5126;BME280;63008;53.112;8.896;2023-04-25T04:18:53;100765.66;;;6.10;75.67
5126;BME280;63008;53.112;8.896;2023-04-25T04:20:54;100766.16;;;6.12;76.15
5126;BME280;63008;53.112;8.896;2023-04-25T04:22:55;100773.22;;;6.13;75.55
5126;BME280;63008;53.112;8.896;2023-04-25T04:24:56;100770.38;;;6.18;75.76
5126;BME280;63008;53.112;8.896;2023-04-25T04:26:58;100774.00;;;6.13;75.81
5126;BME280;63008;53.112;8.896;2023-04-25T04:28:59;100773.59;;;6.20;75.90
5126;BME280;63008;53.112;8.896;2023-04-25T04:31:00;100776.03;;;6.21;75.57
5126;BME280;63008;53.112;8.896;2023-04-25T04:33:03;100784.13;;;6.13;76.40
5126;BME280;63008;53.112;8.896;2023-04-25T04:35:04;100774.00;;;6.13;76.54
5126;BME280;63008;53.112;8.896;2023-04-25T04:37:07;100784.81;;;6.18;75.95
5126;BME280;63008;53.112;8.896;2023-04-25T04:39:08;100793.69;;;6.24;76.77
5126;BME280;63008;53.112;8.896;2023-04-25T04:41:10;100792.16;;;6.31;76.15
5126;BME280;63008;53.112;8.896;2023-04-25T04:43:11;100796.00;;;6.30;76.86
5126;BME280;63008;53.112;8.896;2023-04-25T04:45:12;100792.66;;;6.33;75.73
5126;BME280;63008;53.112;8.896;2023-04-25T04:47:13;100802.03;;;6.41;76.64
5126;BME280;63008;53.112;8.896;2023-04-25T04:49:14;100795.47;;;6.42;77.40
5126;BME280;63008;53.112;8.896;2023-04-25T04:51:15;100803.25;;;6.48;78.06
5126;BME280;63008;53.112;8.896;2023-04-25T04:53:16;100803.97;;;6.40;77.86
5126;BME280;63008;53.112;8.896;2023-04-25T04:55:17;100805.09;;;6.39;77.44
5126;BME280;63008;53.112;8.896;2023-04-25T04:57:18;100807.69;;;6.44;74.56
5126;BME280;63008;53.112;8.896;2023-04-25T04:59:19;100818.59;;;6.44;75.41
5126;BME280;63008;53.112;8.896;2023-04-25T05:01:20;100803.25;;;6.48;74.68
5126;BME280;63008;53.112;8.896;2023-04-25T05:03:22;100815.59;;;6.46;74.56
5126;BME280;63008;53.112;8.896;2023-04-25T05:05:23;100820.22;;;6.45;74.44
5126;BME280;63008;53.112;8.896;2023-04-25T05:07:24;100812.34;;;6.44;74.88
5126;BME280;63008;53.112;8.896;2023-04-25T05:09:26;100814.25;;;6.43;74.80
5126;BME280;63008;53.112;8.896;2023-04-25T05:11:27;100820.91;;;6.51;74.23
5126;BME280;63008;53.112;8.896;2023-04-25T05:13:28;100826.66;;;6.49;74.09
5126;BME280;63008;53.112;8.896;2023-04-25T05:15:29;100815.25;;;6.47;74.77
5126;BME280;63008;53.112;8.896;2023-04-25T05:17:30;100811.13;;;6.50;75.07
5126;BME280;63008;53.112;8.896;2023-04-25T05:19:32;100821.63;;;6.56;73.75
5126;BME280;63008;53.112;8.896;2023-04-25T05:21:33;100824.03;;;6.58;73.59
5126;BME280;63008;53.112;8.896;2023-04-25T05:23:35;100820.19;;;6.59;73.48
5126;BME280;63008;53.112;8.896;2023-04-25T05:25:36;100821.50;;;6.61;73.88
5126;BME280;63008;53.112;8.896;2023-04-25T05:27:37;100819.78;;;6.65;73.03
5126;BME280;63008;53.112;8.896;2023-04-25T05:29:38;100824.59;;;6.68;73.47
5126;BME280;63008;53.112;8.896;2023-04-25T05:31:39;100823.19;;;6.71;74.19
5126;BME280;63008;53.112;8.896;2023-04-25T05:33:40;100828.97;;;6.69;74.76
5126;BME280;63008;53.112;8.896;2023-04-25T05:35:41;100825.06;;;6.62;74.77
5126;BME280;63008;53.112;8.896;2023-04-25T05:37:42;100834.31;;;6.74;73.83
5126;BME280;63008;53.112;8.896;2023-04-25T05:39:43;100834.38;;;6.83;74.57
5126;BME280;63008;53.112;8.896;2023-04-25T05:41:44;100840.47;;;6.80;73.52
5126;BME280;63008;53.112;8.896;2023-04-25T05:43:45;100848.44;;;6.76;74.02
5126;BME280;63008;53.112;8.896;2023-04-25T05:45:49;100842.78;;;6.73;74.78
5126;BME280;63008;53.112;8.896;2023-04-25T05:47:51;100838.03;;;6.78;74.70
5126;BME280;63008;53.112;8.896;2023-04-25T05:49:52;100852.25;;;6.89;74.53
5126;BME280;63008;53.112;8.896;2023-04-25T05:51:52;100849.66;;;6.84;75.32
5126;BME280;63008;53.112;8.896;2023-04-25T05:53:53;100846.22;;;6.78;74.89
5126;BME280;63008;53.112;8.896;2023-04-25T05:55:54;100857.75;;;6.75;75.24
5126;BME280;63008;53.112;8.896;2023-04-25T05:57:55;100860.66;;;6.65;74.97
5126;BME280;63008;53.112;8.896;2023-04-25T05:59:56;100863.63;;;6.55;74.66
5126;BME280;63008;53.112;8.896;2023-04-25T06:01:57;100862.59;;;6.51;75.30
5126;BME280;63008;53.112;8.896;2023-04-25T06:03:58;100852.81;;;6.50;75.81
5126;BME280;63008;53.112;8.896;2023-04-25T06:05:59;100864.31;;;6.47;74.79
5126;BME280;63008;53.112;8.896;2023-04-25T06:08:00;100868.66;;;6.48;75.60
5126;BME280;63008;53.112;8.896;2023-04-25T06:10:02;100872.72;;;6.51;75.97
5126;BME280;63008;53.112;8.896;2023-04-25T06:12:05;100876.44;;;6.55;75.67
5126;BME280;63008;53.112;8.896;2023-04-25T06:14:06;100864.34;;;6.61;75.31
5126;BME280;63008;53.112;8.896;2023-04-25T06:16:08;100871.41;;;6.62;74.23
5126;BME280;63008;53.112;8.896;2023-04-25T06:18:08;100872.41;;;6.66;74.55
5126;BME280;63008;53.112;8.896;2023-04-25T06:20:10;100872.50;;;6.74;74.05
5126;BME280;63008;53.112;8.896;2023-04-25T06:22:11;100875.91;;;6.80;73.48
5126;BME280;63008;53.112;8.896;2023-04-25T06:24:12;100878.13;;;6.91;72.16
5126;BME280;63008;53.112;8.896;2023-04-25T06:26:13;100877.50;;;6.94;73.03
5126;BME280;63008;53.112;8.896;2023-04-25T06:28:14;100883.72;;;7.08;72.23
5126;BME280;63008;53.112;8.896;2023-04-25T06:30:15;100877.84;;;7.15;71.67
5126;BME280;63008;53.112;8.896;2023-04-25T06:32:18;100884.19;;;7.23;71.57
5126;BME280;63008;53.112;8.896;2023-04-25T06:34:19;100899.31;;;7.29;71.64
5126;BME280;63008;53.112;8.896;2023-04-25T06:36:21;100891.03;;;7.34;71.88
5126;BME280;63008;53.112;8.896;2023-04-25T06:38:26;100886.75;;;7.42;72.42
5126;BME280;63008;53.112;8.896;2023-04-25T06:40:27;100884.09;;;7.50;72.39
5126;BME280;63008;53.112;8.896;2023-04-25T06:42:28;100886.25;;;7.62;72.24
5126;BME280;63008;53.112;8.896;2023-04-25T06:44:29;100899.66;;;7.72;71.58
5126;BME280;63008;53.112;8.896;2023-04-25T06:46:30;100893.31;;;7.85;71.24
5126;BME280;63008;53.112;8.896;2023-04-25T06:48:31;100894.63;;;7.87;69.17
5126;BME280;63008;53.112;8.896;2023-04-25T06:50:33;100892.69;;;7.88;68.74
5126;BME280;63008;53.112;8.896;2023-04-25T06:52:34;100906.84;;;7.90;68.04
5126;BME280;63008;53.112;8.896;2023-04-25T06:54:36;100910.53;;;7.85;69.52
5126;BME280;63008;53.112;8.896;2023-04-25T06:56:36;100923.50;;;7.80;69.70
5126;BME280;63008;53.112;8.896;2023-04-25T06:58:37;100915.84;;;7.46;73.46
5126;BME280;63008;53.112;8.896;2023-04-25T07:00:38;100916.22;;;7.31;72.92
5126;BME280;63008;53.112;8.896;2023-04-25T07:02:39;100915.84;;;7.11;73.85
5126;BME280;63008;53.112;8.896;2023-04-25T07:04:43;100914.56;;;6.95;74.48
5126;BME280;63008;53.112;8.896;2023-04-25T07:06:44;100908.19;;;7.00;76.11
5126;BME280;63008;53.112;8.896;2023-04-25T07:08:45;100916.34;;;7.13;76.34
5126;BME280;63008;53.112;8.896;2023-04-25T07:10:46;100915.53;;;7.26;75.88
5126;BME280;63008;53.112;8.896;2023-04-25T07:12:47;100920.22;;;7.34;76.73
5126;BME280;63008;53.112;8.896;2023-04-25T07:14:48;100921.63;;;7.45;75.41
5126;BME280;63008;53.112;8.896;2023-04-25T07:16:49;100925.22;;;7.54;74.80
5126;BME280;63008;53.112;8.896;2023-04-25T07:18:50;100925.19;;;7.67;75.03
5126;BME280;63008;53.112;8.896;2023-04-25T07:20:51;100930.25;;;7.82;74.51
5126;BME280;63008;53.112;8.896;2023-04-25T07:22:52;100926.44;;;7.92;74.66
5126;BME280;63008;53.112;8.896;2023-04-25T07:24:53;100919.63;;;8.03;72.20
5126;BME280;63008;53.112;8.896;2023-04-25T07:26:54;100916.31;;;8.14;70.69
5126;BME280;63008;53.112;8.896;2023-04-25T07:28:55;100922.91;;;8.13;69.08
5126;BME280;63008;53.112;8.896;2023-04-25T07:30:56;100925.50;;;8.18;68.78
5126;BME280;63008;53.112;8.896;2023-04-25T07:33:02;100938.00;;;8.11;64.80
5126;BME280;63008;53.112;8.896;2023-04-25T07:35:03;100941.41;;;8.16;65.06
5126;BME280;63008;53.112;8.896;2023-04-25T07:37:04;100940.84;;;8.06;64.84
5126;BME280;63008;53.112;8.896;2023-04-25T07:39:05;100939.63;;;8.12;63.05
5126;BME280;63008;53.112;8.896;2023-04-25T07:41:07;100947.19;;;8.15;64.37
5126;BME280;63008;53.112;8.896;2023-04-25T07:43:09;100935.66;;;8.18;65.29
5126;BME280;63008;53.112;8.896;2023-04-25T07:45:12;100945.56;;;8.14;62.68
5126;BME280;63008;53.112;8.896;2023-04-25T07:47:14;100940.81;;;8.19;62.86
5126;BME280;63008;53.112;8.896;2023-04-25T07:49:15;100941.66;;;8.28;62.55
5126;BME280;63008;53.112;8.896;2023-04-25T07:51:16;100937.72;;;8.43;62.70
5126;BME280;63008;53.112;8.896;2023-04-25T07:53:17;100947.25;;;8.54;61.82
5126;BME280;63008;53.112;8.896;2023-04-25T07:55:19;100946.84;;;8.69;61.61
5126;BME280;63008;53.112;8.896;2023-04-25T07:57:20;100946.28;;;8.97;60.84
5126;BME280;63008;53.112;8.896;2023-04-25T07:59:21;100957.13;;;9.19;60.93
5126;BME280;63008;53.112;8.896;2023-04-25T08:01:22;100958.91;;;9.32;60.34
5126;BME280;63008;53.112;8.896;2023-04-25T08:03:23;100960.38;;;9.38;60.63
5126;BME280;63008;53.112;8.896;2023-04-25T08:05:24;100966.97;;;9.37;59.87
5126;BME280;63008;53.112;8.896;2023-04-25T08:07:25;100964.06;;;9.16;58.20
5126;BME280;63008;53.112;8.896;2023-04-25T08:09:26;100965.28;;;9.02;60.94
5126;BME280;63008;53.112;8.896;2023-04-25T08:11:27;100967.22;;;9.02;60.28
5126;BME280;63008;53.112;8.896;2023-04-25T08:13:28;100973.97;;;9.04;61.92
5126;BME280;63008;53.112;8.896;2023-04-25T08:15:29;100977.88;;;9.11;61.50
5126;BME280;63008;53.112;8.896;2023-04-25T08:17:30;100982.56;;;9.11;59.45
5126;BME280;63008;53.112;8.896;2023-04-25T08:19:31;100981.72;;;9.02;59.41
5126;BME280;63008;53.112;8.896;2023-04-25T08:21:32;100977.53;;;8.96;60.13
5126;BME280;63008;53.112;8.896;2023-04-25T08:23:33;100990.03;;;8.89;60.35
5126;BME280;63008;53.112;8.896;2023-04-25T08:25:34;100987.47;;;8.84;59.58
5126;BME280;63008;53.112;8.896;2023-04-25T08:27:35;100994.28;;;8.64;59.03
5126;BME280;63008;53.112;8.896;2023-04-25T08:29:36;100998.28;;;8.58;59.89
5126;BME280;63008;53.112;8.896;2023-04-25T08:31:37;100997.94;;;8.60;60.61
5126;BME280;63008;53.112;8.896;2023-04-25T08:33:38;101002.31;;;8.61;61.14
5126;BME280;63008;53.112;8.896;2023-04-25T08:35:39;100994.28;;;8.64;63.08
5126;BME280;63008;53.112;8.896;2023-04-25T08:37:40;101003.50;;;8.77;62.55
5126;BME280;63008;53.112;8.896;2023-04-25T08:39:42;100992.63;;;8.94;62.87
5126;BME280;63008;53.112;8.896;2023-04-25T08:41:43;101008.47;;;9.13;61.63
5126;BME280;63008;53.112;8.896;2023-04-25T08:43:45;101007.88;;;9.25;61.76
5126;BME280;63008;53.112;8.896;2023-04-25T08:45:47;101007.88;;;9.16;62.01
5126;BME280;63008;53.112;8.896;2023-04-25T08:47:51;101004.25;;;8.99;63.25
5126;BME280;63008;53.112;8.896;2023-04-25T08:49:53;101011.66;;;8.99;62.03
5126;BME280;63008;53.112;8.896;2023-04-25T08:51:59;101005.25;;;9.11;62.57
5126;BME280;63008;53.112;8.896;2023-04-25T08:54:08;101023.22;;;9.34;62.25
5126;BME280;63008;53.112;8.896;2023-04-25T08:56:12;101026.66;;;9.09;62.43
5126;BME280;63008;53.112;8.896;2023-04-25T08:58:14;101025.22;;;9.12;61.24
5126;BME280;63008;53.112;8.896;2023-04-25T09:00:16;101034.41;;;9.16;61.39
5126;BME280;63008;53.112;8.896;2023-04-25T09:02:17;101033.31;;;9.25;59.36
5126;BME280;63008;53.112;8.896;2023-04-25T09:04:20;101028.69;;;9.34;58.71
5126;BME280;63008;53.112;8.896;2023-04-25T09:06:22;101031.72;;;9.33;58.37
5126;BME280;63008;53.112;8.896;2023-04-25T09:08:24;101043.72;;;9.62;57.68
5126;BME280;63008;53.112;8.896;2023-04-25T09:10:25;101047.41;;;9.66;57.55
5126;BME280;63008;53.112;8.896;2023-04-25T09:12:26;101044.91;;;10.04;56.51
5126;BME280;63008;53.112;8.896;2023-04-25T09:14:28;101052.31;;;10.20;54.72
5126;BME280;63008;53.112;8.896;2023-04-25T09:16:29;101053.56;;;10.57;54.23
5126;BME280;63008;53.112;8.896;2023-04-25T09:18:32;101049.75;;;10.95;52.76
5126;BME280;63008;53.112;8.896;2023-04-25T09:20:41;101043.81;;;10.85;52.76
5126;BME280;63008;53.112;8.896;2023-04-25T09:22:42;101053.84;;;10.72;52.96
5126;BME280;63008;53.112;8.896;2023-04-25T09:24:46;101065.19;;;10.62;52.98
5126;BME280;63008;53.112;8.896;2023-04-25T09:26:49;101056.31;;;11.11;51.89
5126;BME280;63008;53.112;8.896;2023-04-25T09:29:04;101055.28;;;11.53;52.89
5126;BME280;63008;53.112;8.896;2023-04-25T09:31:05;101066.84;;;11.00;55.08
5126;BME280;63008;53.112;8.896;2023-04-25T09:33:07;101073.09;;;10.47;53.83
5126;BME280;63008;53.112;8.896;2023-04-25T09:35:08;101088.78;;;10.04;56.39
5126;BME280;63008;53.112;8.896;2023-04-25T09:37:17;101102.13;;;9.32;61.58
5126;BME280;63008;53.112;8.896;2023-04-25T09:39:18;101112.00;;;8.51;65.57
5126;BME280;63008;53.112;8.896;2023-04-25T09:41:25;101114.69;;;7.93;70.47
5126;BME280;63008;53.112;8.896;2023-04-25T09:43:26;101136.59;;;7.26;72.86
5126;BME280;63008;53.112;8.896;2023-04-25T09:45:29;101125.19;;;6.79;75.00
5126;BME280;63008;53.112;8.896;2023-04-25T09:47:30;101114.88;;;6.76;77.48
5126;BME280;63008;53.112;8.896;2023-04-25T09:49:32;101104.56;;;6.73;78.95
5126;BME280;63008;53.112;8.896;2023-04-25T09:51:33;101113.34;;;6.70;80.46
5126;BME280;63008;53.112;8.896;2023-04-25T09:53:36;101118.69;;;6.75;81.66
5126;BME280;63008;53.112;8.896;2023-04-25T09:55:37;101111.88;;;7.04;80.90
5126;BME280;63008;53.112;8.896;2023-04-25T09:57:39;101109.47;;;7.70;83.84
5126;BME280;63008;53.112;8.896;2023-04-25T09:59:47;101113.03;;;8.19;80.69
5126;BME280;63008;53.112;8.896;2023-04-25T10:01:49;101109.03;;;8.69;75.08
5126;BME280;63008;53.112;8.896;2023-04-25T10:03:54;101102.53;;;9.09;75.51
5126;BME280;63008;53.112;8.896;2023-04-25T10:06:01;101108.38;;;9.72;71.34
5126;BME280;63008;53.112;8.896;2023-04-25T10:08:03;101114.75;;;10.15;71.19
5126;BME280;63008;53.112;8.896;2023-04-25T10:10:07;101113.06;;;10.90;70.09
5126;BME280;63008;53.112;8.896;2023-04-25T10:12:09;101098.19;;;11.37;70.94
5126;BME280;63008;53.112;8.896;2023-04-25T10:14:10;101118.97;;;12.33;65.91
5126;BME280;63008;53.112;8.896;2023-04-25T10:16:13;101105.06;;;12.09;62.64
5126;BME280;63008;53.112;8.896;2023-04-25T10:18:14;101117.09;;;12.25;57.53
5126;BME280;63008;53.112;8.896;2023-04-25T10:20:15;101112.13;;;12.19;57.87
5126;BME280;63008;53.112;8.896;2023-04-25T10:22:20;101111.44;;;12.22;50.91
5126;BME280;63008;53.112;8.896;2023-04-25T10:24:24;101110.69;;;12.33;51.58
5126;BME280;63008;53.112;8.896;2023-04-25T10:26:26;101112.97;;;11.90;52.67
5126;BME280;63008;53.112;8.896;2023-04-25T10:28:27;101118.03;;;11.51;55.06
5126;BME280;63008;53.112;8.896;2023-04-25T10:30:29;101108.19;;;11.41;54.08
5126;BME280;63008;53.112;8.896;2023-04-25T10:32:31;101109.31;;;11.78;53.55
5126;BME280;63008;53.112;8.896;2023-04-25T10:34:40;101105.06;;;11.89;52.35
5126;BME280;63008;53.112;8.896;2023-04-25T10:36:42;101115.38;;;11.92;56.63
5126;BME280;63008;53.112;8.896;2023-04-25T10:38:44;101113.66;;;11.79;52.37
5126;BME280;63008;53.112;8.896;2023-04-25T10:41:08;101110.75;;;11.84;51.78
5126;BME280;63008;53.112;8.896;2023-04-25T10:45:51;101124.94;;;12.56;52.40
5126;BME280;63008;53.112;8.896;2023-04-25T10:47:52;101108.34;;;12.44;52.85
5126;BME280;63008;53.112;8.896;2023-04-25T10:49:53;101115.50;;;12.24;54.17
5126;BME280;63008;53.112;8.896;2023-04-25T10:52:11;101126.81;;;12.23;54.90
5126;BME280;63008;53.112;8.896;2023-04-25T10:54:12;101119.56;;;11.98;54.08
5126;BME280;63008;53.112;8.896;2023-04-25T10:56:20;101123.88;;;11.41;54.54